sensor_id;sensor_type;location;lat;lon;timestamp;pressure;altitude;pressure_sealevel;temperature;humidity
21588;BME280;10956;48.878;13.316;2023-02-18T00:00:55;94726.28;;;6.82;100.00
21588;BME280;10956;48.878;13.316;2023-02-18T00:03:23;94724.69;;;6.80;100.00
21588;BME280;10956;48.878;13.316;2023-02-18T00:05:49;94727.66;;;6.72;100.00
21588;BME280;10956;48.878;13.316;2023-02-18T00:08:14;94717.72;;;6.74;100.00
21588;BME280;10956;48.878;13.316;2023-02-18T00:10:40;94724.47;;;6.70;100.00
21588;BME280;10956;48.878;13.316;2023-02-18T00:13:06;94728.44;;;6.73;100.00
21588;BME280;10956;48.878;13.316;2023-02-18T00:15:34;94720.13;;;6.76;100.00
21588;BME280;10956;48.878;13.316;2023-02-18T00:17:59;94731.41;;;6.76;100.00
21588;BME280;10956;48.878;13.316;2023-02-18T00:20:25;94734.81;;;6.77;100.00
21588;BME280;10956;48.878;13.316;2023-02-18T00:22:50;94739.03;;;6.78;100.00
21588;BME280;10956;48.878;13.316;2023-02-18T00:25:16;94722.97;;;6.74;100.00
21588;BME280;10956;48.878;13.316;2023-02-18T00:27:41;94718.75;;;6.73;100.00
21588;BME280;10956;48.878;13.316;2023-02-18T00:30:07;94730.38;;;6.77;100.00
21588;BME280;10956;48.878;13.316;2023-02-18T00:32:33;94737.22;;;6.78;100.00
21588;BME280;10956;48.878;13.316;2023-02-18T00:34:59;94749.75;;;6.76;100.00
21588;BME280;10956;48.878;13.316;2023-02-18T00:37:24;94752.47;;;6.82;100.00
21588;BME280;10956;48.878;13.316;2023-02-18T00:39:50;94757.59;;;6.76;100.00
21588;BME280;10956;48.878;13.316;2023-02-18T00:42:15;94760.31;;;6.82;100.00
21588;BME280;10956;48.878;13.316;2023-02-18T00:44:41;94764.19;;;6.79;100.00
21588;BME280;10956;48.878;13.316;2023-02-18T00:47:06;94758.72;;;6.80;100.00
21588;BME280;10956;48.878;13.316;2023-02-18T00:49:31;94755.66;;;6.84;100.00
21588;BME280;10956;48.878;13.316;2023-02-18T00:51:57;94764.09;;;6.86;100.00
21588;BME280;10956;48.878;13.316;2023-02-18T00:54:23;94752.13;;;6.78;100.00
21588;BME280;10956;48.878;13.316;2023-02-18T00:56:48;94758.84;;;6.86;100.00
21588;BME280;10956;48.878;13.316;2023-02-18T00:59:13;94753.50;;;6.80;100.00
21588;BME280;10956;48.878;13.316;2023-02-18T01:01:39;94758.28;;;6.84;100.00
21588;BME280;10956;48.878;13.316;2023-02-18T01:04:04;94766.81;;;6.91;100.00
21588;BME280;10956;48.878;13.316;2023-02-18T01:06:30;94756.91;;;6.81;100.00
21588;BME280;10956;48.878;13.316;2023-02-18T01:08:56;94751.22;;;6.84;100.00
21588;BME280;10956;48.878;13.316;2023-02-18T01:11:21;94756.78;;;6.88;100.00
21588;BME280;10956;48.878;13.316;2023-02-18T01:13:46;94751.44;;;6.83;100.00
21588;BME280;10956;48.878;13.316;2023-02-18T01:16:12;94754.97;;;6.76;100.00
21588;BME280;10956;48.878;13.316;2023-02-18T01:18:38;94746.88;;;6.78;100.00
21588;BME280;10956;48.878;13.316;2023-02-18T01:21:06;94742.78;;;6.82;100.00
21588;BME280;10956;48.878;13.316;2023-02-18T01:23:33;94738.81;;;6.79;100.00
21588;BME280;10956;48.878;13.316;2023-02-18T01:25:59;94726.28;;;6.82;100.00
21588;BME280;10956;48.878;13.316;2023-02-18T01:28:24;94739.03;;;6.78;100.00
21588;BME280;10956;48.878;13.316;2023-02-18T01:30:52;94745.06;;;6.78;100.00
21588;BME280;10956;48.878;13.316;2023-02-18T01:33:19;94730.84;;;6.74;100.00
21588;BME280;10956;48.878;13.316;2023-02-18T01:35:44;94738.91;;;6.73;100.00
21588;BME280;10956;48.878;13.316;2023-02-18T01:38:10;94734.25;;;6.63;100.00
21588;BME280;10956;48.878;13.316;2023-02-18T01:40:44;94737.66;;;6.75;100.00
21588;BME280;10956;48.878;13.316;2023-02-18T01:43:11;94743.03;;;6.80;100.00
21588;BME280;10956;48.878;13.316;2023-02-18T01:45:59;94731.84;;;6.85;100.00
21588;BME280;10956;48.878;13.316;2023-02-18T01:48:47;94740.28;;;6.87;100.00
21588;BME280;10956;48.878;13.316;2023-02-18T01:51:17;94743.81;;;6.81;100.00
21588;BME280;10956;48.878;13.316;2023-02-18T01:54:04;94743.03;;;6.80;100.00
21588;BME280;10956;48.878;13.316;2023-02-18T01:56:38;94734.69;;;6.84;100.00
21588;BME280;10956;48.878;13.316;2023-02-18T01:59:14;94743.59;;;6.83;100.00
21588;BME280;10956;48.878;13.316;2023-02-18T02:01:43;94745.63;;;6.80;100.00
21588;BME280;10956;48.878;13.316;2023-02-18T02:04:09;94741.31;;;6.74;100.00
21588;BME280;10956;48.878;13.316;2023-02-18T02:06:35;94724.56;;;6.75;100.00
21588;BME280;10956;48.878;13.316;2023-02-18T02:09:03;94718.97;;;6.84;100.00
21588;BME280;10956;48.878;13.316;2023-02-18T02:14:17;94724.13;;;6.78;100.00
21588;BME280;10956;48.878;13.316;2023-02-18T02:17:02;94720.91;;;6.88;100.00
21588;BME280;10956;48.878;13.316;2023-02-18T02:19:58;94714.19;;;6.80;100.00
21588;BME280;10956;48.878;13.316;2023-02-18T02:25:18;94712.38;;;6.81;100.00
21588;BME280;10956;48.878;13.316;2023-02-18T02:31:07;94709.06;;;6.86;100.00
21588;BME280;10956;48.878;13.316;2023-02-18T02:39:20;94710.44;;;6.88;100.00
21588;BME280;10956;48.878;13.316;2023-02-18T02:42:07;94716.13;;;6.85;100.00
21588;BME280;10956;48.878;13.316;2023-02-18T02:44:46;94706.91;;;6.83;100.00
21588;BME280;10956;48.878;13.316;2023-02-18T02:47:44;94717.97;;;6.85;100.00
21588;BME280;10956;48.878;13.316;2023-02-18T02:50:19;94696.31;;;6.77;100.00
21588;BME280;10956;48.878;13.316;2023-02-18T02:52:51;94696.09;;;6.79;100.00
21588;BME280;10956;48.878;13.316;2023-02-18T02:55:19;94703.25;;;6.84;100.00
21588;BME280;10956;48.878;13.316;2023-02-18T02:57:49;94683.44;;;6.88;100.00
21588;BME280;10956;48.878;13.316;2023-02-18T03:00:18;94693.69;;;6.77;100.00
21588;BME280;10956;48.878;13.316;2023-02-18T03:03:16;94691.19;;;6.83;100.00
21588;BME280;10956;48.878;13.316;2023-02-18T03:11:11;94699.63;;;6.85;100.00
21588;BME280;10956;48.878;13.316;2023-02-18T03:14:00;94699.97;;;6.88;100.00
21588;BME280;10956;48.878;13.316;2023-02-18T03:16:46;94686.75;;;6.83;100.00
21588;BME280;10956;48.878;13.316;2023-02-18T03:19:25;94692.00;;;6.83;100.00
21588;BME280;10956;48.878;13.316;2023-02-18T03:22:06;94686.41;;;6.79;100.00
21588;BME280;10956;48.878;13.316;2023-02-18T03:24:36;94692.00;;;6.83;100.00
21588;BME280;10956;48.878;13.316;2023-02-18T03:27:11;94695.97;;;6.86;100.00
21588;BME280;10956;48.878;13.316;2023-02-18T03:29:39;94691.88;;;6.90;100.00
21588;BME280;10956;48.878;13.316;2023-02-18T03:32:07;94699.63;;;6.85;100.00
21588;BME280;10956;48.878;13.316;2023-02-18T03:34:39;94699.63;;;6.85;100.00
21588;BME280;10956;48.878;13.316;2023-02-18T03:37:08;94701.22;;;6.86;100.00
21588;BME280;10956;48.878;13.316;2023-02-18T03:39:35;94700.75;;;6.89;100.00
21588;BME280;10956;48.878;13.316;2023-02-18T03:42:02;94700.75;;;6.89;100.00
21588;BME280;10956;48.878;13.316;2023-02-18T03:44:29;94699.16;;;6.88;100.00
21588;BME280;10956;48.878;13.316;2023-02-18T03:46:55;94710.09;;;6.85;100.00
21588;BME280;10956;48.878;13.316;2023-02-18T03:49:20;94708.03;;;6.87;100.00
21588;BME280;10956;48.878;13.316;2023-02-18T03:51:46;94707.59;;;6.90;100.00
21588;BME280;10956;48.878;13.316;2023-02-18T03:54:11;94702.69;;;6.82;100.00
21588;BME280;10956;48.878;13.316;2023-02-18T03:56:39;94710.09;;;6.85;100.00
21588;BME280;10956;48.878;13.316;2023-02-18T03:59:04;94713.28;;;6.87;100.00
21588;BME280;10956;48.878;13.316;2023-02-18T04:01:30;94710.78;;;6.92;100.00
21588;BME280;10956;48.878;13.316;2023-02-18T04:03:55;94705.53;;;6.92;100.00
21588;BME280;10956;48.878;13.316;2023-02-18T04:06:24;94707.59;;;6.90;100.00
21588;BME280;10956;48.878;13.316;2023-02-18T04:08:49;94696.78;;;6.86;100.00
21588;BME280;10956;48.878;13.316;2023-02-18T04:11:15;94709.19;;;6.91;100.00
21588;BME280;10956;48.878;13.316;2023-02-18T04:13:40;94698.69;;;6.91;100.00
21588;BME280;10956;48.878;13.316;2023-02-18T04:16:06;94701.66;;;6.94;100.00
21588;BME280;10956;48.878;13.316;2023-02-18T04:18:31;94712.38;;;6.93;100.00
21588;BME280;10956;48.878;13.316;2023-02-18T04:20:57;94706.78;;;6.89;100.00
21588;BME280;10956;48.878;13.316;2023-02-18T04:23:22;94701.53;;;6.89;100.00
21588;BME280;10956;48.878;13.316;2023-02-18T04:25:48;94701.53;;;6.89;100.00
21588;BME280;10956;48.878;13.316;2023-02-18T04:28:15;94712.81;;;6.90;100.00
21588;BME280;10956;48.878;13.316;2023-02-18T04:30:42;94704.50;;;6.93;100.00
21588;BME280;10956;48.878;13.316;2023-02-18T04:33:08;94699.84;;;6.95;100.00
21588;BME280;10956;48.878;13.316;2023-02-18T04:35:34;94702.34;;;6.90;100.00
21588;BME280;10956;48.878;13.316;2023-02-18T04:38:01;94705.75;;;6.90;100.00
21588;BME280;10956;48.878;13.316;2023-02-18T04:40:27;94700.28;;;6.92;100.00
21588;BME280;10956;48.878;13.316;2023-02-18T04:42:58;94703.25;;;6.84;100.00
21588;BME280;10956;48.878;13.316;2023-02-18T04:45:24;94699.63;;;6.85;100.00
21588;BME280;10956;48.878;13.316;2023-02-18T04:47:50;94706.69;;;6.84;100.00
21588;BME280;10956;48.878;13.316;2023-02-18T04:50:15;94702.34;;;6.90;100.00
21588;BME280;10956;48.878;13.316;2023-02-18T04:52:41;94701.19;;;6.97;100.00
21588;BME280;10956;48.878;13.316;2023-02-18T04:55:06;94698.00;;;6.95;100.00
21588;BME280;10956;48.878;13.316;2023-02-18T04:57:32;94706.66;;;6.96;100.00
21588;BME280;10956;48.878;13.316;2023-02-18T04:59:58;94695.84;;;6.92;100.00
21588;BME280;10956;48.878;13.316;2023-02-18T05:02:23;94703.72;;;6.92;100.00
21588;BME280;10956;48.878;13.316;2023-02-18T05:04:49;94697.09;;;6.90;100.00
21588;BME280;10956;48.878;13.316;2023-02-18T05:07:14;94694.94;;;6.98;100.00
21588;BME280;10956;48.878;13.316;2023-02-18T05:09:39;94691.97;;;6.95;100.00
21588;BME280;10956;48.878;13.316;2023-02-18T05:12:05;94695.19;;;6.85;100.00
21588;BME280;10956;48.878;13.316;2023-02-18T05:14:31;94690.63;;;6.80;100.00
21588;BME280;10956;48.878;13.316;2023-02-18T05:16:56;94688.22;;;6.91;100.00
21588;BME280;10956;48.878;13.316;2023-02-18T05:19:22;94687.66;;;6.89;100.00
21588;BME280;10956;48.878;13.316;2023-02-18T05:21:47;94688.69;;;6.88;100.00
21588;BME280;10956;48.878;13.316;2023-02-18T05:24:13;94690.28;;;6.89;100.00
21588;BME280;10956;48.878;13.316;2023-02-18T05:26:38;94682.66;;;6.87;100.00
21588;BME280;10956;48.878;13.316;2023-02-18T05:29:04;94691.41;;;6.93;100.00
21588;BME280;10956;48.878;13.316;2023-02-18T05:31:29;94691.63;;;6.91;100.00
21588;BME280;10956;48.878;13.316;2023-02-18T05:33:54;94697.09;;;6.90;100.00
21588;BME280;10956;48.878;13.316;2023-02-18T05:36:20;94695.06;;;6.92;100.00
21588;BME280;10956;48.878;13.316;2023-02-18T05:38:45;94698.81;;;6.84;100.00
21588;BME280;10956;48.878;13.316;2023-02-18T05:41:10;94688.56;;;6.83;100.00
21588;BME280;10956;48.878;13.316;2023-02-18T05:43:36;94696.78;;;6.86;100.00
21588;BME280;10956;48.878;13.316;2023-02-18T05:46:22;94703.81;;;6.86;100.00
21588;BME280;10956;48.878;13.316;2023-02-18T05:48:47;94701.22;;;6.86;100.00
21588;BME280;10956;48.878;13.316;2023-02-18T05:51:12;94699.16;;;6.88;100.00
21588;BME280;10956;48.878;13.316;2023-02-18T05:53:38;94697.09;;;6.90;100.00
21588;BME280;10956;48.878;13.316;2023-02-18T05:56:04;94697.56;;;6.87;100.00
21588;BME280;10956;48.878;13.316;2023-02-18T05:58:29;94699.97;;;6.88;100.00
21588;BME280;10956;48.878;13.316;2023-02-18T06:00:54;94703.25;;;6.84;100.00
21588;BME280;10956;48.878;13.316;2023-02-18T06:03:20;94702.00;;;6.86;100.00
21588;BME280;10956;48.878;13.316;2023-02-18T06:05:49;94696.53;;;6.88;100.00
21588;BME280;10956;48.878;13.316;2023-02-18T06:08:14;94701.09;;;6.80;100.00
21588;BME280;10956;48.878;13.316;2023-02-18T06:10:39;94698.94;;;6.77;100.00
21588;BME280;10956;48.878;13.316;2023-02-18T06:13:05;94697.34;;;6.76;100.00
21588;BME280;10956;48.878;13.316;2023-02-18T06:15:30;94694.84;;;6.82;100.00
21588;BME280;10956;48.878;13.316;2023-02-18T06:17:56;94693.81;;;6.83;100.00
21588;BME280;10956;48.878;13.316;2023-02-18T06:20:21;94704.84;;;6.85;100.00
21588;BME280;10956;48.878;13.316;2023-02-18T06:22:46;94693.34;;;6.86;100.00
21588;BME280;10956;48.878;13.316;2023-02-18T06:25:12;94703.38;;;6.89;100.00
21588;BME280;10956;48.878;13.316;2023-02-18T06:27:37;94700.41;;;6.85;100.00
21588;BME280;10956;48.878;13.316;2023-02-18T06:30:03;94700.41;;;6.85;100.00
21588;BME280;10956;48.878;13.316;2023-02-18T06:32:28;94703.59;;;6.87;100.00
21588;BME280;10956;48.878;13.316;2023-02-18T06:34:54;94692.00;;;6.83;100.00
21588;BME280;10956;48.878;13.316;2023-02-18T06:37:19;94703.25;;;6.84;100.00
21588;BME280;10956;48.878;13.316;2023-02-18T06:39:45;94696.44;;;6.83;100.00
21588;BME280;10956;48.878;13.316;2023-02-18T06:42:10;94703.59;;;6.87;100.00
21588;BME280;10956;48.878;13.316;2023-02-18T06:44:36;94705.31;;;6.82;100.00
21588;BME280;10956;48.878;13.316;2023-02-18T06:47:01;94705.53;;;6.80;100.00
21588;BME280;10956;48.878;13.316;2023-02-18T06:49:26;94704.97;;;6.90;100.00
21588;BME280;10956;48.878;13.316;2023-02-18T06:51:52;94706.09;;;6.94;100.00
21588;BME280;10956;48.878;13.316;2023-02-18T06:54:17;94704.63;;;6.98;100.00
21588;BME280;10956;48.878;13.316;2023-02-18T06:56:42;94709.84;;;6.98;100.00
21588;BME280;10956;48.878;13.316;2023-02-18T06:59:08;94712.25;;;6.99;100.00
21588;BME280;10956;48.878;13.316;2023-02-18T07:01:33;94704.72;;;7.03;100.00
21588;BME280;10956;48.878;13.316;2023-02-18T07:03:59;94703.03;;;6.97;100.00
21588;BME280;10956;48.878;13.316;2023-02-18T07:06:24;94710.66;;;6.98;100.00
21588;BME280;10956;48.878;13.316;2023-02-18T07:08:49;94711.44;;;6.99;100.00
21588;BME280;10956;48.878;13.316;2023-02-18T07:11:15;94707.78;;;7.00;100.00
21588;BME280;10956;48.878;13.316;2023-02-18T07:13:40;94702.09;;;7.03;100.00
21588;BME280;10956;48.878;13.316;2023-02-18T07:16:06;94701.63;;;7.06;100.00
21588;BME280;10956;48.878;13.316;2023-02-18T07:18:31;94699.91;;;7.11;100.00
21588;BME280;10956;48.878;13.316;2023-02-18T07:20:56;94707.66;;;7.06;100.00
21588;BME280;10956;48.878;13.316;2023-02-18T07:23:22;94705.94;;;7.12;100.00
21588;BME280;10956;48.878;13.316;2023-02-18T07:25:47;94695.00;;;7.15;100.00
21588;BME280;10956;48.878;13.316;2023-02-18T07:28:13;94700.25;;;7.15;100.00
21588;BME280;10956;48.878;13.316;2023-02-18T07:30:38;94696.59;;;7.16;100.00
21588;BME280;10956;48.878;13.316;2023-02-18T07:33:05;94703.44;;;7.17;100.00
21588;BME280;10956;48.878;13.316;2023-02-18T07:35:30;94700.34;;;7.20;100.00
21588;BME280;10956;48.878;13.316;2023-02-18T07:37:55;94686.56;;;7.13;100.00
21588;BME280;10956;48.878;13.316;2023-02-18T07:40:22;94693.88;;;7.11;100.00
21588;BME280;10956;48.878;13.316;2023-02-18T07:42:48;94693.88;;;7.11;100.00
21588;BME280;10956;48.878;13.316;2023-02-18T07:45:13;94696.50;;;7.11;100.00
21588;BME280;10956;48.878;13.316;2023-02-18T07:47:39;94708.00;;;7.10;100.00
21588;BME280;10956;48.878;13.316;2023-02-18T07:50:07;94703.91;;;7.14;100.00
21588;BME280;10956;48.878;13.316;2023-02-18T07:52:34;94697.53;;;7.10;100.00
21588;BME280;10956;48.878;13.316;2023-02-18T07:54:59;94696.41;;;7.06;100.00
21588;BME280;10956;48.878;13.316;2023-02-18T07:57:25;94689.44;;;7.11;100.00
21588;BME280;10956;48.878;13.316;2023-02-18T07:59:50;94690.44;;;7.22;100.00
21588;BME280;10956;48.878;13.316;2023-02-18T08:02:18;94692.47;;;7.20;100.00
21588;BME280;10956;48.878;13.316;2023-02-18T08:04:44;94692.47;;;7.20;100.00
21588;BME280;10956;48.878;13.316;2023-02-18T08:07:14;94682.00;;;7.20;100.00
21588;BME280;10956;48.878;13.316;2023-02-18T08:09:40;94680.41;;;7.19;100.00
21588;BME280;10956;48.878;13.316;2023-02-18T08:12:06;94685.19;;;7.22;100.00
21588;BME280;10956;48.878;13.316;2023-02-18T08:14:32;94674.25;;;7.25;100.00
21588;BME280;10956;48.878;13.316;2023-02-18T08:16:57;94672.50;;;7.31;100.00
21588;BME280;10956;48.878;13.316;2023-02-18T08:19:23;94680.84;;;7.28;100.00
21588;BME280;10956;48.878;13.316;2023-02-18T08:21:48;94681.41;;;7.30;100.00
21588;BME280;10956;48.878;13.316;2023-02-18T08:24:13;94673.16;;;7.38;100.00
21588;BME280;10956;48.878;13.316;2023-02-18T08:26:39;94665.88;;;7.40;100.00
21588;BME280;10956;48.878;13.316;2023-02-18T08:29:04;94671.25;;;7.33;100.00
21588;BME280;10956;48.878;13.316;2023-02-18T08:31:30;94672.84;;;7.34;100.00
21588;BME280;10956;48.878;13.316;2023-02-18T08:33:56;94676.13;;;7.41;100.00
21588;BME280;10956;48.878;13.316;2023-02-18T08:36:23;94676.69;;;7.43;100.00
21588;BME280;10956;48.878;13.316;2023-02-18T08:38:48;94668.59;;;7.45;100.00
21588;BME280;10956;48.878;13.316;2023-02-18T08:41:14;94669.94;;;7.48;100.00
21588;BME280;10956;48.878;13.316;2023-02-18T08:43:41;94668.91;;;7.49;100.00
21588;BME280;10956;48.878;13.316;2023-02-18T08:46:06;94675.03;;;7.54;100.00
21588;BME280;10956;48.878;13.316;2023-02-18T08:48:31;94674.34;;;7.59;100.00
21588;BME280;10956;48.878;13.316;2023-02-18T08:50:58;94665.84;;;7.68;100.00
21588;BME280;10956;48.878;13.316;2023-02-18T08:53:23;94662.59;;;7.78;100.00
21588;BME280;10956;48.878;13.316;2023-02-18T08:55:49;94665.25;;;7.95;100.00
21588;BME280;10956;48.878;13.316;2023-02-18T08:58:15;94664.19;;;7.79;100.00
21588;BME280;10956;48.878;13.316;2023-02-18T09:00:42;94667.28;;;7.76;100.00
21588;BME280;10956;48.878;13.316;2023-02-18T09:03:11;94661.81;;;7.77;100.00
21588;BME280;10956;48.878;13.316;2023-02-18T09:05:38;94652.66;;;7.80;100.00
21588;BME280;10956;48.878;13.316;2023-02-18T09:08:03;94650.13;;;7.85;100.00
21588;BME280;10956;48.878;13.316;2023-02-18T09:10:29;94651.81;;;7.91;100.00
21588;BME280;10956;48.878;13.316;2023-02-18T09:12:54;94650.94;;;8.02;100.00
21588;BME280;10956;48.878;13.316;2023-02-18T09:15:19;94635.03;;;8.09;100.00
21588;BME280;10956;48.878;13.316;2023-02-18T09:17:45;94633.75;;;8.12;100.00
21588;BME280;10956;48.878;13.316;2023-02-18T09:20:11;94629.69;;;8.21;100.00
21588;BME280;10956;48.878;13.316;2023-02-18T09:22:36;94629.53;;;8.27;100.00
21588;BME280;10956;48.878;13.316;2023-02-18T09:25:02;94624.16;;;8.34;100.00
21588;BME280;10956;48.878;13.316;2023-02-18T09:27:28;94630.19;;;8.34;100.00
21588;BME280;10956;48.878;13.316;2023-02-18T09:29:53;94634.16;;;8.37;100.00
21588;BME280;10956;48.878;13.316;2023-02-18T09:32:19;94629.28;;;8.29;100.00
21588;BME280;10956;48.878;13.316;2023-02-18T09:34:44;94637.16;;;8.29;100.00
21588;BME280;10956;48.878;13.316;2023-02-18T09:37:10;94622.31;;;8.18;100.00
21588;BME280;10956;48.878;13.316;2023-02-18T09:39:36;94639.09;;;8.33;100.00
21588;BME280;10956;48.878;13.316;2023-02-18T09:42:03;94617.94;;;8.40;100.00
21588;BME280;10956;48.878;13.316;2023-02-18T09:44:37;94618.06;;;8.50;100.00
21588;BME280;10956;48.878;13.316;2023-02-18T09:49:39;94615.09;;;8.63;100.00
21588;BME280;10956;48.878;13.316;2023-02-18T09:52:13;94613.22;;;8.81;100.00
21588;BME280;10956;48.878;13.316;2023-02-18T09:54:39;94606.38;;;8.80;100.00
21588;BME280;10956;48.878;13.316;2023-02-18T09:57:05;94615.66;;;8.65;100.00
21588;BME280;10956;48.878;13.316;2023-02-18T09:59:31;94607.16;;;8.58;100.00
21588;BME280;10956;48.878;13.316;2023-02-18T10:01:58;94607.66;;;8.38;100.00
21588;BME280;10956;48.878;13.316;2023-02-18T10:04:35;94616.72;;;8.31;100.00
21588;BME280;10956;48.878;13.316;2023-02-18T10:07:04;94607.72;;;8.27;100.00
21588;BME280;10956;48.878;13.316;2023-02-18T10:09:34;94607.19;;;8.25;100.00
21588;BME280;10956;48.878;13.316;2023-02-18T10:12:14;94606.31;;;8.36;100.00
21588;BME280;10956;48.878;13.316;2023-02-18T10:14:42;94611.22;;;8.49;100.00
21588;BME280;10956;48.878;13.316;2023-02-18T10:17:13;94616.19;;;8.67;100.00
21588;BME280;10956;48.878;13.316;2023-02-18T10:19:42;94601.00;;;8.69;100.00
21588;BME280;10956;48.878;13.316;2023-02-18T10:22:10;94601.66;;;8.82;100.00
21588;BME280;10956;48.878;13.316;2023-02-18T10:24:39;94599.53;;;8.79;100.00
21588;BME280;10956;48.878;13.316;2023-02-18T10:27:08;94600.13;;;8.86;100.00
21588;BME280;10956;48.878;13.316;2023-02-18T10:29:34;94594.28;;;8.79;100.00
21588;BME280;10956;48.878;13.316;2023-02-18T10:32:23;94600.00;;;8.76;100.00
21588;BME280;10956;48.878;13.316;2023-02-18T10:35:04;94607.34;;;8.73;100.00
21588;BME280;10956;48.878;13.316;2023-02-18T10:40:25;94592.00;;;8.87;100.00
21588;BME280;10956;48.878;13.316;2023-02-18T10:43:18;94596.28;;;8.93;100.00
21588;BME280;10956;48.878;13.316;2023-02-18T10:46:01;94582.91;;;8.95;100.00
21588;BME280;10956;48.878;13.316;2023-02-18T10:48:41;94579.03;;;9.02;100.00
21588;BME280;10956;48.878;13.316;2023-02-18T10:51:29;94585.75;;;9.15;100.00
21588;BME280;10956;48.878;13.316;2023-02-18T10:53:56;94588.34;;;9.37;100.00
21588;BME280;10956;48.878;13.316;2023-02-18T10:56:39;94586.09;;;9.51;100.00
21588;BME280;10956;48.878;13.316;2023-02-18T10:59:17;94572.63;;;9.42;100.00
21588;BME280;10956;48.878;13.316;2023-02-18T11:01:44;94565.72;;;9.36;100.00
21588;BME280;10956;48.878;13.316;2023-02-18T11:04:15;94573.13;;;9.39;100.00
21588;BME280;10956;48.878;13.316;2023-02-18T11:10:06;94550.69;;;9.31;100.00
21588;BME280;10956;48.878;13.316;2023-02-18T11:12:17;94542.53;;;9.33;100.00
21588;BME280;10956;48.878;13.316;2023-02-18T11:14:47;94537.56;;;9.36;100.00
21588;BME280;10956;48.878;13.316;2023-02-18T11:17:20;94525.59;;;9.51;100.00
21588;BME280;10956;48.878;13.316;2023-02-18T11:19:57;94535.09;;;9.52;100.00
21588;BME280;10956;48.878;13.316;2023-02-18T11:22:34;94519.72;;;9.38;100.00
21588;BME280;10956;48.878;13.316;2023-02-18T11:25:03;94530.13;;;9.28;100.00
21588;BME280;10956;48.878;13.316;2023-02-18T11:27:44;94519.44;;;9.08;100.00
21588;BME280;10956;48.878;13.316;2023-02-18T11:32:57;94513.97;;;8.88;100.00
21588;BME280;10956;48.878;13.316;2023-02-18T11:35:26;94499.03;;;8.93;100.00
21588;BME280;10956;48.878;13.316;2023-02-18T11:37:55;94500.19;;;9.02;100.00
21588;BME280;10956;48.878;13.316;2023-02-18T11:40:24;94495.81;;;9.13;100.00
21588;BME280;10956;48.878;13.316;2023-02-18T11:42:51;94494.22;;;9.12;100.00
21588;BME280;10956;48.878;13.316;2023-02-18T11:45:28;94505.78;;;9.11;100.00
21588;BME280;10956;48.878;13.316;2023-02-18T11:47:59;94502.66;;;9.14;100.00
21588;BME280;10956;48.878;13.316;2023-02-18T11:50:25;94500.88;;;9.20;100.00
21588;BME280;10956;48.878;13.316;2023-02-18T11:52:54;94482.31;;;9.31;100.00
21588;BME280;10956;48.878;13.316;2023-02-18T11:55:29;94489.81;;;9.50;100.00
21588;BME280;10956;48.878;13.316;2023-02-18T11:57:57;94473.59;;;9.63;100.00
21588;BME280;10956;48.878;13.316;2023-02-18T12:00:39;94465.69;;;9.58;100.00
21588;BME280;10956;48.878;13.316;2023-02-18T12:03:21;94466.09;;;9.45;100.00
21588;BME280;10956;48.878;13.316;2023-02-18T12:05:51;94462.50;;;9.56;100.00
21588;BME280;10956;48.878;13.316;2023-02-18T12:08:24;94452.06;;;9.66;100.00
21588;BME280;10956;48.878;13.316;2023-02-18T12:11:03;94449.66;;;9.64;100.00
21588;BME280;10956;48.878;13.316;2023-02-18T12:13:35;94422.06;;;9.67;100.00
21588;BME280;10956;48.878;13.316;2023-02-18T12:24:46;94421.59;;;9.38;100.00
21588;BME280;10956;48.878;13.316;2023-02-18T12:27:29;94418.69;;;9.34;100.00
21588;BME280;10956;48.878;13.316;2023-02-18T12:30:38;94416.00;;;9.29;100.00
21588;BME280;10956;48.878;13.316;2023-02-18T12:35:34;94418.16;;;9.32;100.00
21588;BME280;10956;48.878;13.316;2023-02-18T12:40:55;94409.50;;;9.37;100.00
21588;BME280;10956;48.878;13.316;2023-02-18T12:47:02;94427.47;;;9.13;100.00
21588;BME280;10956;48.878;13.316;2023-02-18T12:50:07;94411.66;;;9.08;100.00
21588;BME280;10956;48.878;13.316;2023-02-18T13:04:09;94423.19;;;9.07;100.00
21588;BME280;10956;48.878;13.316;2023-02-18T13:07:01;94413.19;;;9.04;100.00
21588;BME280;10956;48.878;13.316;2023-02-18T13:12:19;94420.63;;;9.12;100.00
21588;BME280;10956;48.878;13.316;2023-02-18T13:14:50;94415.91;;;9.14;100.00
21588;BME280;10956;48.878;13.316;2023-02-18T13:17:22;94424.00;;;9.07;100.00
21588;BME280;10956;48.878;13.316;2023-02-18T13:19:55;94414.78;;;9.05;100.00
21588;BME280;10956;48.878;13.316;2023-02-18T13:22:24;94411.09;;;9.06;100.00
21588;BME280;10956;48.878;13.316;2023-02-18T13:24:53;94400.03;;;9.04;100.00
21588;BME280;10956;48.878;13.316;2023-02-18T13:32:26;94403.13;;;8.96;100.00
21588;BME280;10956;48.878;13.316;2023-02-18T13:35:18;94395.75;;;8.93;100.00
21588;BME280;10956;48.878;13.316;2023-02-18T13:40:29;94397.31;;;8.94;100.00
21588;BME280;10956;48.878;13.316;2023-02-18T13:48:29;94396.13;;;9.06;100.00
21588;BME280;10956;48.878;13.316;2023-02-18T13:51:01;94406.34;;;9.03;100.00
21588;BME280;10956;48.878;13.316;2023-02-18T13:53:30;94396.03;;;8.96;100.00
21588;BME280;10956;48.878;13.316;2023-02-18T13:56:03;94379.25;;;9.02;100.00
21588;BME280;10956;48.878;13.316;2023-02-18T13:58:35;94376.38;;;9.04;100.00
21588;BME280;10956;48.878;13.316;2023-02-18T14:03:54;94381.13;;;9.07;100.00
21588;BME280;10956;48.878;13.316;2023-02-18T14:06:24;94380.13;;;9.13;100.00
21588;BME280;10956;48.878;13.316;2023-02-18T14:08:51;94368.81;;;9.13;100.00
21588;BME280;10956;48.878;13.316;2023-02-18T14:11:39;94366.44;;;9.11;100.00
21588;BME280;10956;48.878;13.316;2023-02-18T14:14:32;94361.97;;;9.12;100.00
21588;BME280;10956;48.878;13.316;2023-02-18T14:19:55;94364.09;;;9.15;100.00
21588;BME280;10956;48.878;13.316;2023-02-18T14:27:39;94349.00;;;9.00;100.00